• Join FlightAware (Why Join?)
  • Login
  • US Flag 
10:18AM EDT


 

Airport Tracker/Info


-or-


 

Live Flight TrackerFlight Track Log ✈ N507DM ✈ 21-Jun-2013 ✈ KBCB - KVUJ

Flight Track Log - Related Links

Times and Time Zones

All times are in EDT time to prevent confusion due to time zone crossing. See the N507DM flight status page for this flight to view local times or setup timezone preferences in your user account.

Time Position Orientation Groundspeed Altitude Reporting Facility
EDT Latitude Longitude Course Direction KTS MPH feet Rate Location/Type
01:05PM 37.0492 -80.3846 173° South  Level Estimated
01:06PM 37.0175 -80.3800 173° South  Level Estimated
01:07PM 36.9858 -80.3753 173° South  Level Estimated
01:08PM 36.9541 -80.3707 173° South  Level Estimated
01:09PM 36.9224 -80.3661 173° South  Level Estimated
01:10PM 36.8907 -80.3615 173° South  Level Estimated
01:11PM 36.8590 -80.3568 173° South  Level Estimated
01:12PM 36.8273 -80.3522 173° South  Level Estimated
01:13PM 36.7956 -80.3476 173° South  Level Estimated
01:14PM 36.7639 -80.3430 173° South  Level Estimated
01:15PM 36.7322 -80.3384 173° South  Level Estimated
01:16PM 36.7005 -80.3338 173° South  Level Estimated
01:17PM 36.6688 -80.3292 173° South  Level Estimated
01:18PM 36.6371 -80.3247 173° South  Level Estimated
01:19PM 36.6054 -80.3201 173° South  Level Estimated
01:20PM 36.5737 -80.3155 173° South  Level Estimated
01:21PM 36.5420 -80.3109 173° South  Level Estimated
01:22PM 36.5103 -80.3063 173° South  Level Estimated
01:23PM 36.4786 -80.3018 173° South  Level Estimated
01:24PM 36.4469 -80.2972 173° South  Level Estimated
01:25PM 36.4152 -80.2926 173° South  Level Estimated
01:26PM 36.3835 -80.2881 173° South  Level Estimated
01:27PM 36.3518 -80.2835 173° South  Level Estimated
01:28PM 36.3201 -80.2790 173° South  Level Estimated
01:29PM 36.2884 -80.2744 173° South  Level Estimated
01:30PM 36.2554 -80.2697 173° South  Level Estimated
01:31PM 36.2223 -80.2650 173° South  Level Estimated
01:32PM 36.1893 -80.2602 173° South  Level Estimated
01:33PM 36.1562 -80.2555 173° South  Level Estimated
01:34PM 36.1231 -80.2508 173° South  Level Estimated
01:35PM 36.0901 -80.2460 173° South  Level Estimated
01:36PM 36.0570 -80.2413 173° South  Level Estimated
01:37PM 36.0240 -80.2366 173° South  Level Estimated
01:38PM 35.9909 -80.2319 173° South  Level Estimated
01:39PM 35.9578 -80.2272 173° South  Level Estimated
01:40PM 35.9248 -80.2225 173° South  Level Estimated
01:41PM 35.8917 -80.2178 173° South  Level Estimated
01:42PM 35.8587 -80.2131 173° South  Level Estimated
01:43PM 35.8256 -80.2084 173° South  Level Estimated
01:44PM 35.7925 -80.2038 173° South  Level Estimated
01:45PM 35.7595 -80.1991 173° South  Level Estimated
01:46PM 35.7264 -80.1944 173° South  Level Estimated
01:47PM 35.6933 -80.1897 173° South  Level Estimated
01:48PM 35.6603 -80.1851 173° South  Level Estimated
01:49PM 35.6272 -80.1804 173° South  Level Estimated
01:50PM 35.5941 -80.1757 173° South  Level Estimated
01:51PM 35.5611 -80.1711 173° South  Level Estimated
01:52PM 35.5280 -80.1664 173° South  Level Estimated
01:53PM 35.4949 -80.1618 173° South  Level Estimated
01:54PM 35.4618 -80.1571 173° South  Level Estimated
01:55PM 35.4288 -80.1525 173° South  Level Estimated
01:56PM 35.4167 -80.1508 173° South  Level Estimated
01:57PM 35.4167 -80.1508 37° Northeast  Level Estimated
01:58PM 35.4167 -80.1508 37° Northeast  Level Estimated
01:59PM 35.4167 -80.1508 37° Northeast  Level Estimated
02:00PM 35.4167 -80.1508 37° Northeast  Level Estimated
02:01PM 35.4167 -80.1508 37° Northeast  Level Estimated
02:02PM 35.4167 -80.1508 37° Northeast  Level Estimated
02:03PM 35.4167 -80.1508 37° Northeast  Level Estimated
02:04PM 35.4167 -80.1508 37° Northeast  Level Estimated
02:05PM 35.4167 -80.1508 37° Northeast  Level Estimated
02:06PM 35.4167 -80.1508 37° Northeast  Level Estimated
02:07PM 35.4167 -80.1508 37° Northeast  Level Estimated
02:08PM 35.4167 -80.1508 37° Northeast  Level Estimated
02:09PM 35.4167 -80.1508 37° Northeast  Level Estimated
02:10PM 35.4167 -80.1508 37° Northeast  Level Estimated
02:11PM 35.4167 -80.1508 37° Northeast  Level Estimated
02:12PM 35.4167 -80.1508 37° Northeast  Level Estimated
02:13PM 35.4167 -80.1508 37° Northeast  Level Estimated
02:14PM 35.4167 -80.1508 37° Northeast  Level Estimated
02:15PM 35.4167 -80.1508 37° Northeast  Level Estimated
02:16PM 35.4167 -80.1508 37° Northeast  Level Estimated
02:17PM 35.4167 -80.1508 37° Northeast  Level Estimated
02:18PM 35.4167 -80.1508 37° Northeast  Level Estimated
02:19PM 35.4167 -80.1508 37° Northeast  Level Estimated
02:20PM 35.4167 -80.1508 37° Northeast  Level Estimated
02:21PM 35.4167 -80.1508 37° Northeast  Level Estimated
02:22PM 35.4167 -80.1508 37° Northeast  Level Estimated
02:23PM 35.4167 -80.1508 37° Northeast  Level Estimated
02:24PM 35.4167 -80.1508 37° Northeast  Level Estimated